sensor_id;sensor_type;location;lat;lon;timestamp;P1;durP1;ratioP1;P2;durP2;ratioP2
37859;SDS011;23698;52.014;5.190;2023-06-22T05:00:31;17.15;;;11.93;;
37859;SDS011;23698;52.014;5.190;2023-06-22T05:03:17;15.75;;;10.73;;
37859;SDS011;23698;52.014;5.190;2023-06-22T05:06:05;17.63;;;11.80;;
37859;SDS011;23698;52.014;5.190;2023-06-22T05:08:51;14.70;;;10.40;;
37859;SDS011;23698;52.014;5.190;2023-06-22T05:11:38;16.55;;;12.18;;
37859;SDS011;23698;52.014;5.190;2023-06-22T05:14:24;15.43;;;11.68;;
37859;SDS011;23698;52.014;5.190;2023-06-22T05:42:25;19.35;;;13.73;;
37859;SDS011;23698;52.014;5.190;2023-06-22T05:45:12;20.85;;;13.82;;
37859;SDS011;23698;52.014;5.190;2023-06-22T05:47:58;17.73;;;13.32;;
37859;SDS011;23698;52.014;5.190;2023-06-22T05:50:45;17.55;;;12.25;;
37859;SDS011;23698;52.014;5.190;2023-06-22T05:53:31;16.02;;;12.35;;
37859;SDS011;23698;52.014;5.190;2023-06-22T05:56:18;17.02;;;12.73;;
37859;SDS011;23698;52.014;5.190;2023-06-22T05:59:05;20.27;;;12.75;;
37859;SDS011;23698;52.014;5.190;2023-06-22T06:01:52;16.42;;;13.50;;
37859;SDS011;23698;52.014;5.190;2023-06-22T06:04:42;18.33;;;13.77;;
37859;SDS011;23698;52.014;5.190;2023-06-22T06:08:34;18.10;;;14.05;;
37859;SDS011;23698;52.014;5.190;2023-06-22T06:11:23;17.20;;;14.82;;
37859;SDS011;23698;52.014;5.190;2023-06-22T06:18:06;19.60;;;15.30;;
37859;SDS011;23698;52.014;5.190;2023-06-22T06:20:53;20.45;;;14.85;;
37859;SDS011;23698;52.014;5.190;2023-06-22T06:23:40;20.48;;;15.00;;
37859;SDS011;23698;52.014;5.190;2023-06-22T06:26:27;20.42;;;14.43;;
37859;SDS011;23698;52.014;5.190;2023-06-22T06:29:14;20.33;;;16.65;;
37859;SDS011;23698;52.014;5.190;2023-06-22T06:32:03;17.88;;;14.55;;
37859;SDS011;23698;52.014;5.190;2023-06-22T06:34:51;19.65;;;16.42;;
37859;SDS011;23698;52.014;5.190;2023-06-22T06:37:38;21.52;;;16.58;;
37859;SDS011;23698;52.014;5.190;2023-06-22T06:40:25;20.25;;;16.15;;
37859;SDS011;23698;52.014;5.190;2023-06-22T06:43:12;20.83;;;16.30;;
37859;SDS011;23698;52.014;5.190;2023-06-22T06:45:58;23.05;;;17.40;;
37859;SDS011;23698;52.014;5.190;2023-06-22T06:48:44;19.77;;;15.95;;
37859;SDS011;23698;52.014;5.190;2023-06-22T06:51:32;20.08;;;15.35;;
37859;SDS011;23698;52.014;5.190;2023-06-22T06:54:18;16.88;;;14.75;;
37859;SDS011;23698;52.014;5.190;2023-06-22T06:57:05;22.13;;;15.45;;
37859;SDS011;23698;52.014;5.190;2023-06-22T06:59:52;20.48;;;16.52;;
37859;SDS011;23698;52.014;5.190;2023-06-22T07:02:38;18.90;;;16.42;;
37859;SDS011;23698;52.014;5.190;2023-06-22T07:05:25;18.10;;;14.93;;
37859;SDS011;23698;52.014;5.190;2023-06-22T07:08:13;18.98;;;14.90;;
37859;SDS011;23698;52.014;5.190;2023-06-22T07:10:59;19.70;;;16.02;;
37859;SDS011;23698;52.014;5.190;2023-06-22T07:13:46;18.63;;;15.50;;
37859;SDS011;23698;52.014;5.190;2023-06-22T07:16:32;18.70;;;16.20;;
37859;SDS011;23698;52.014;5.190;2023-06-22T07:19:24;18.85;;;14.65;;
37859;SDS011;23698;52.014;5.190;2023-06-22T07:22:11;18.60;;;14.25;;
37859;SDS011;23698;52.014;5.190;2023-06-22T07:24:59;16.75;;;14.95;;
37859;SDS011;23698;52.014;5.190;2023-06-22T07:27:46;19.05;;;14.02;;
37859;SDS011;23698;52.014;5.190;2023-06-22T07:30:33;16.92;;;14.13;;
37859;SDS011;23698;52.014;5.190;2023-06-22T07:33:21;18.23;;;14.45;;
37859;SDS011;23698;52.014;5.190;2023-06-22T07:36:08;16.52;;;14.57;;
37859;SDS011;23698;52.014;5.190;2023-06-22T07:38:54;17.33;;;14.20;;
37859;SDS011;23698;52.014;5.190;2023-06-22T07:41:43;16.77;;;14.40;;
37859;SDS011;23698;52.014;5.190;2023-06-22T07:44:30;19.85;;;15.80;;
37859;SDS011;23698;52.014;5.190;2023-06-22T07:47:17;17.65;;;14.35;;
37859;SDS011;23698;52.014;5.190;2023-06-22T07:50:04;17.73;;;14.10;;
37859;SDS011;23698;52.014;5.190;2023-06-22T07:52:51;19.73;;;15.15;;
37859;SDS011;23698;52.014;5.190;2023-06-22T07:55:38;18.45;;;15.32;;
37859;SDS011;23698;52.014;5.190;2023-06-22T07:58:26;17.98;;;15.32;;
37859;SDS011;23698;52.014;5.190;2023-06-22T08:01:13;18.08;;;14.05;;
37859;SDS011;23698;52.014;5.190;2023-06-22T08:03:59;21.17;;;13.82;;
37859;SDS011;23698;52.014;5.190;2023-06-22T08:06:46;17.77;;;13.52;;
37859;SDS011;23698;52.014;5.190;2023-06-22T08:09:32;17.15;;;12.88;;
37859;SDS011;23698;52.014;5.190;2023-06-22T08:12:19;15.88;;;13.00;;
37859;SDS011;23698;52.014;5.190;2023-06-22T08:15:08;15.13;;;11.57;;
37859;SDS011;23698;52.014;5.190;2023-06-22T08:17:55;15.88;;;11.07;;
37859;SDS011;23698;52.014;5.190;2023-06-22T08:20:42;11.25;;;9.07;;
37859;SDS011;23698;52.014;5.190;2023-06-22T08:23:28;12.02;;;10.80;;
37859;SDS011;23698;52.014;5.190;2023-06-22T08:26:15;11.90;;;9.48;;
37859;SDS011;23698;52.014;5.190;2023-06-22T08:29:01;11.63;;;8.65;;
37859;SDS011;23698;52.014;5.190;2023-06-22T08:31:49;12.13;;;8.75;;
37859;SDS011;23698;52.014;5.190;2023-06-22T08:34:36;10.77;;;9.10;;
37859;SDS011;23698;52.014;5.190;2023-06-22T08:37:22;10.20;;;8.95;;
37859;SDS011;23698;52.014;5.190;2023-06-22T08:40:15;11.70;;;9.15;;
37859;SDS011;23698;52.014;5.190;2023-06-22T08:43:01;14.07;;;8.52;;
37859;SDS011;23698;52.014;5.190;2023-06-22T08:45:48;10.88;;;9.43;;
37859;SDS011;23698;52.014;5.190;2023-06-22T08:48:36;10.07;;;7.55;;
37859;SDS011;23698;52.014;5.190;2023-06-22T08:51:22;10.55;;;7.50;;
37859;SDS011;23698;52.014;5.190;2023-06-22T08:54:09;9.50;;;7.70;;
37859;SDS011;23698;52.014;5.190;2023-06-22T08:56:55;10.88;;;7.30;;
37859;SDS011;23698;52.014;5.190;2023-06-22T08:59:41;11.43;;;7.40;;
37859;SDS011;23698;52.014;5.190;2023-06-22T09:02:28;9.10;;;7.03;;
37859;SDS011;23698;52.014;5.190;2023-06-22T09:05:18;9.48;;;7.85;;
37859;SDS011;23698;52.014;5.190;2023-06-22T09:08:06;10.60;;;8.55;;
37859;SDS011;23698;52.014;5.190;2023-06-22T09:10:53;9.90;;;8.32;;
37859;SDS011;23698;52.014;5.190;2023-06-22T09:13:41;11.63;;;8.52;;
37859;SDS011;23698;52.014;5.190;2023-06-22T09:16:27;10.55;;;7.93;;
37859;SDS011;23698;52.014;5.190;2023-06-22T09:19:15;11.13;;;7.85;;
37859;SDS011;23698;52.014;5.190;2023-06-22T09:22:05;10.63;;;8.48;;
37859;SDS011;23698;52.014;5.190;2023-06-22T09:24:52;10.63;;;7.85;;
37859;SDS011;23698;52.014;5.190;2023-06-22T09:27:40;10.82;;;8.18;;
37859;SDS011;23698;52.014;5.190;2023-06-22T09:30:26;12.05;;;8.85;;
37859;SDS011;23698;52.014;5.190;2023-06-22T09:33:16;14.65;;;9.02;;
37859;SDS011;23698;52.014;5.190;2023-06-22T09:36:04;10.40;;;8.27;;
37859;SDS011;23698;52.014;5.190;2023-06-22T09:38:54;10.57;;;7.50;;
37859;SDS011;23698;52.014;5.190;2023-06-22T09:41:46;10.68;;;7.13;;
37859;SDS011;23698;52.014;5.190;2023-06-22T09:44:32;10.23;;;8.10;;
37859;SDS011;23698;52.014;5.190;2023-06-22T09:47:18;11.10;;;8.77;;
37859;SDS011;23698;52.014;5.190;2023-06-22T09:50:05;11.50;;;8.38;;
37859;SDS011;23698;52.014;5.190;2023-06-22T09:52:52;10.00;;;8.57;;
37859;SDS011;23698;52.014;5.190;2023-06-22T09:55:41;12.75;;;8.68;;
37859;SDS011;23698;52.014;5.190;2023-06-22T09:58:27;12.60;;;8.52;;
37859;SDS011;23698;52.014;5.190;2023-06-22T10:01:14;8.23;;;7.20;;
37859;SDS011;23698;52.014;5.190;2023-06-22T10:04:01;7.97;;;7.13;;
37859;SDS011;23698;52.014;5.190;2023-06-22T10:06:48;10.25;;;7.75;;
37859;SDS011;23698;52.014;5.190;2023-06-22T10:09:34;10.45;;;8.25;;
37859;SDS011;23698;52.014;5.190;2023-06-22T10:12:22;8.80;;;7.10;;
37859;SDS011;23698;52.014;5.190;2023-06-22T10:57:58;10.93;;;6.10;;
37859;SDS011;23698;52.014;5.190;2023-06-22T11:00:45;8.77;;;6.25;;
37859;SDS011;23698;52.014;5.190;2023-06-22T11:03:32;12.13;;;6.05;;
37859;SDS011;23698;52.014;5.190;2023-06-22T11:06:22;8.85;;;5.90;;
37859;SDS011;23698;52.014;5.190;2023-06-22T11:09:08;9.35;;;5.40;;
37859;SDS011;23698;52.014;5.190;2023-06-22T11:12:08;9.82;;;6.35;;
37859;SDS011;23698;52.014;5.190;2023-06-22T11:14:56;11.10;;;5.95;;
37859;SDS011;23698;52.014;5.190;2023-06-22T11:17:42;6.72;;;5.78;;
37859;SDS011;23698;52.014;5.190;2023-06-22T11:20:29;6.32;;;5.72;;
37859;SDS011;23698;52.014;5.190;2023-06-22T11:23:16;6.90;;;5.68;;
37859;SDS011;23698;52.014;5.190;2023-06-22T11:26:02;10.13;;;6.22;;
37859;SDS011;23698;52.014;5.190;2023-06-22T11:28:49;8.35;;;6.90;;
37859;SDS011;23698;52.014;5.190;2023-06-22T11:31:37;7.90;;;6.65;;
37859;SDS011;23698;52.014;5.190;2023-06-22T11:34:24;12.02;;;7.07;;
37859;SDS011;23698;52.014;5.190;2023-06-22T11:37:11;11.30;;;8.05;;
37859;SDS011;23698;52.014;5.190;2023-06-22T11:39:57;8.95;;;8.00;;
37859;SDS011;23698;52.014;5.190;2023-06-22T11:42:51;10.80;;;8.10;;
37859;SDS011;23698;52.014;5.190;2023-06-22T11:45:38;12.93;;;9.13;;
37859;SDS011;23698;52.014;5.190;2023-06-22T11:48:26;14.95;;;10.45;;
37859;SDS011;23698;52.014;5.190;2023-06-22T11:51:12;14.82;;;10.98;;
37859;SDS011;23698;52.014;5.190;2023-06-22T11:53:59;14.05;;;10.68;;
37859;SDS011;23698;52.014;5.190;2023-06-22T11:56:45;13.32;;;10.13;;
37859;SDS011;23698;52.014;5.190;2023-06-22T11:59:34;13.88;;;9.35;;
37859;SDS011;23698;52.014;5.190;2023-06-22T12:02:20;16.35;;;9.02;;
37859;SDS011;23698;52.014;5.190;2023-06-22T12:05:08;10.98;;;9.45;;
37859;SDS011;23698;52.014;5.190;2023-06-22T12:07:56;11.90;;;9.55;;
37859;SDS011;23698;52.014;5.190;2023-06-22T12:10:42;11.98;;;9.43;;
37859;SDS011;23698;52.014;5.190;2023-06-22T12:13:28;11.40;;;9.35;;
37859;SDS011;23698;52.014;5.190;2023-06-22T12:16:15;12.57;;;9.65;;
37859;SDS011;23698;52.014;5.190;2023-06-22T12:19:02;11.55;;;9.55;;
37859;SDS011;23698;52.014;5.190;2023-06-22T12:21:50;13.27;;;9.55;;
37859;SDS011;23698;52.014;5.190;2023-06-22T12:24:36;13.48;;;9.07;;
37859;SDS011;23698;52.014;5.190;2023-06-22T12:27:34;14.05;;;9.48;;
37859;SDS011;23698;52.014;5.190;2023-06-22T12:31:04;13.45;;;10.38;;
37859;SDS011;23698;52.014;5.190;2023-06-22T12:33:51;12.07;;;9.52;;
37859;SDS011;23698;52.014;5.190;2023-06-22T12:36:37;11.55;;;9.15;;
37859;SDS011;23698;52.014;5.190;2023-06-22T12:39:24;13.50;;;9.40;;
37859;SDS011;23698;52.014;5.190;2023-06-22T12:42:11;15.82;;;10.55;;
37859;SDS011;23698;52.014;5.190;2023-06-22T12:44:57;18.20;;;11.98;;
37859;SDS011;23698;52.014;5.190;2023-06-22T12:47:43;16.00;;;11.50;;
37859;SDS011;23698;52.014;5.190;2023-06-22T12:50:30;26.50;;;14.50;;
37859;SDS011;23698;52.014;5.190;2023-06-22T12:53:18;23.40;;;14.07;;
37859;SDS011;23698;52.014;5.190;2023-06-22T12:56:06;22.90;;;14.23;;
37859;SDS011;23698;52.014;5.190;2023-06-22T12:58:52;22.80;;;14.95;;
37859;SDS011;23698;52.014;5.190;2023-06-22T13:01:39;20.60;;;16.08;;
37859;SDS011;23698;52.014;5.190;2023-06-22T13:04:26;20.52;;;15.07;;
37859;SDS011;23698;52.014;5.190;2023-06-22T13:07:12;18.08;;;14.02;;
37859;SDS011;23698;52.014;5.190;2023-06-22T13:10:07;20.42;;;14.05;;
37859;SDS011;23698;52.014;5.190;2023-06-22T13:12:58;18.05;;;14.98;;
37859;SDS011;23698;52.014;5.190;2023-06-22T13:15:46;19.45;;;13.95;;
37859;SDS011;23698;52.014;5.190;2023-06-22T13:18:32;22.83;;;14.93;;
37859;SDS011;23698;52.014;5.190;2023-06-22T13:21:20;16.77;;;14.98;;
37859;SDS011;23698;52.014;5.190;2023-06-22T13:24:06;19.88;;;14.75;;
37859;SDS011;23698;52.014;5.190;2023-06-22T13:26:55;20.17;;;15.60;;
37859;SDS011;23698;52.014;5.190;2023-06-22T13:29:43;19.77;;;16.50;;
37859;SDS011;23698;52.014;5.190;2023-06-22T13:32:29;21.25;;;17.33;;
37859;SDS011;23698;52.014;5.190;2023-06-22T13:35:15;19.77;;;17.67;;
37859;SDS011;23698;52.014;5.190;2023-06-22T13:38:02;22.55;;;16.33;;
37859;SDS011;23698;52.014;5.190;2023-06-22T13:40:48;21.10;;;15.60;;
37859;SDS011;23698;52.014;5.190;2023-06-22T13:43:34;18.48;;;15.40;;
37859;SDS011;23698;52.014;5.190;2023-06-22T13:46:22;22.23;;;17.35;;
37859;SDS011;23698;52.014;5.190;2023-06-22T13:49:09;20.40;;;17.40;;
37859;SDS011;23698;52.014;5.190;2023-06-22T13:51:55;67.10;;;24.52;;
37859;SDS011;23698;52.014;5.190;2023-06-22T13:54:42;34.85;;;20.45;;
37859;SDS011;23698;52.014;5.190;2023-06-22T13:57:28;22.85;;;17.83;;
37859;SDS011;23698;52.014;5.190;2023-06-22T14:00:15;21.42;;;18.02;;
37859;SDS011;23698;52.014;5.190;2023-06-22T14:03:04;20.35;;;18.23;;
37859;SDS011;23698;52.014;5.190;2023-06-22T14:05:50;23.83;;;19.58;;
37859;SDS011;23698;52.014;5.190;2023-06-22T14:08:39;22.40;;;19.20;;
37859;SDS011;23698;52.014;5.190;2023-06-22T14:11:27;26.08;;;21.27;;
37859;SDS011;23698;52.014;5.190;2023-06-22T14:14:14;21.40;;;18.98;;
37859;SDS011;23698;52.014;5.190;2023-06-22T14:17:01;27.05;;;21.50;;
37859;SDS011;23698;52.014;5.190;2023-06-22T14:19:49;26.10;;;21.45;;
37859;SDS011;23698;52.014;5.190;2023-06-22T14:22:37;29.27;;;22.08;;
37859;SDS011;23698;52.014;5.190;2023-06-22T14:25:25;25.83;;;21.77;;
37859;SDS011;23698;52.014;5.190;2023-06-22T14:28:12;29.45;;;22.77;;
37859;SDS011;23698;52.014;5.190;2023-06-22T14:30:59;24.77;;;19.33;;
37859;SDS011;23698;52.014;5.190;2023-06-22T14:33:47;26.85;;;20.25;;
37859;SDS011;23698;52.014;5.190;2023-06-22T14:36:35;25.75;;;20.33;;
37859;SDS011;23698;52.014;5.190;2023-06-22T14:39:22;23.20;;;19.27;;
37859;SDS011;23698;52.014;5.190;2023-06-22T14:42:08;25.85;;;18.48;;
37859;SDS011;23698;52.014;5.190;2023-06-22T14:44:55;22.83;;;17.80;;
37859;SDS011;23698;52.014;5.190;2023-06-22T14:47:41;22.90;;;19.70;;
37859;SDS011;23698;52.014;5.190;2023-06-22T14:50:28;21.92;;;18.50;;
37859;SDS011;23698;52.014;5.190;2023-06-22T14:53:17;23.20;;;18.38;;
37859;SDS011;23698;52.014;5.190;2023-06-22T14:56:03;22.45;;;18.40;;
37859;SDS011;23698;52.014;5.190;2023-06-22T14:58:51;20.77;;;17.33;;
37859;SDS011;23698;52.014;5.190;2023-06-22T16:50:53;28.15;;;21.25;;
37859;SDS011;23698;52.014;5.190;2023-06-22T16:53:39;26.58;;;21.83;;
37859;SDS011;23698;52.014;5.190;2023-06-22T16:56:27;29.95;;;20.52;;
37859;SDS011;23698;52.014;5.190;2023-06-22T16:59:14;27.67;;;23.13;;
37859;SDS011;23698;52.014;5.190;2023-06-22T17:22:51;32.90;;;26.70;;
37859;SDS011;23698;52.014;5.190;2023-06-22T17:25:40;32.88;;;26.52;;
37859;SDS011;23698;52.014;5.190;2023-06-22T17:28:27;39.78;;;27.25;;
37859;SDS011;23698;52.014;5.190;2023-06-22T17:31:14;35.78;;;27.30;;
37859;SDS011;23698;52.014;5.190;2023-06-22T17:34:07;38.10;;;29.08;;
37859;SDS011;23698;52.014;5.190;2023-06-22T17:36:54;35.45;;;27.83;;
37859;SDS011;23698;52.014;5.190;2023-06-22T17:39:42;35.33;;;27.02;;
37859;SDS011;23698;52.014;5.190;2023-06-22T17:42:37;33.33;;;26.55;;
37859;SDS011;23698;52.014;5.190;2023-06-22T17:45:24;32.03;;;26.20;;
37859;SDS011;23698;52.014;5.190;2023-06-22T17:48:12;34.83;;;26.77;;
37859;SDS011;23698;52.014;5.190;2023-06-22T17:51:01;34.20;;;26.45;;
37859;SDS011;23698;52.014;5.190;2023-06-22T17:53:47;32.22;;;25.45;;
37859;SDS011;23698;52.014;5.190;2023-06-22T17:59:53;32.00;;;25.85;;
37859;SDS011;23698;52.014;5.190;2023-06-22T18:02:35;34.95;;;27.90;;
37859;SDS011;23698;52.014;5.190;2023-06-22T18:05:33;31.45;;;25.60;;
37859;SDS011;23698;52.014;5.190;2023-06-22T18:08:25;37.72;;;26.70;;
37859;SDS011;23698;52.014;5.190;2023-06-22T18:11:11;37.80;;;28.25;;
37859;SDS011;23698;52.014;5.190;2023-06-22T18:13:57;37.90;;;28.55;;
37859;SDS011;23698;52.014;5.190;2023-06-22T18:16:51;40.85;;;30.60;;
37859;SDS011;23698;52.014;5.190;2023-06-22T18:19:41;38.78;;;30.67;;
37859;SDS011;23698;52.014;5.190;2023-06-22T18:22:31;38.30;;;29.90;;
37859;SDS011;23698;52.014;5.190;2023-06-22T18:25:18;40.35;;;31.15;;
37859;SDS011;23698;52.014;5.190;2023-06-22T18:28:08;44.67;;;30.88;;
37859;SDS011;23698;52.014;5.190;2023-06-22T18:30:56;40.08;;;32.50;;
37859;SDS011;23698;52.014;5.190;2023-06-22T18:33:47;42.38;;;31.67;;
37859;SDS011;23698;52.014;5.190;2023-06-22T18:36:39;40.55;;;30.90;;
37859;SDS011;23698;52.014;5.190;2023-06-22T18:39:27;43.25;;;32.60;;
37859;SDS011;23698;52.014;5.190;2023-06-22T19:04:23;31.80;;;22.90;;
37859;SDS011;23698;52.014;5.190;2023-06-22T19:07:13;26.90;;;21.10;;
37859;SDS011;23698;52.014;5.190;2023-06-22T19:10:20;21.90;;;18.10;;
37859;SDS011;23698;52.014;5.190;2023-06-22T19:13:17;26.70;;;16.52;;
37859;SDS011;23698;52.014;5.190;2023-06-22T19:16:05;25.75;;;18.85;;
37859;SDS011;23698;52.014;5.190;2023-06-22T19:18:51;22.80;;;18.20;;
37859;SDS011;23698;52.014;5.190;2023-06-22T19:21:41;24.45;;;18.38;;
37859;SDS011;23698;52.014;5.190;2023-06-22T19:24:28;25.73;;;18.55;;
37859;SDS011;23698;52.014;5.190;2023-06-22T19:27:15;26.58;;;20.60;;
37859;SDS011;23698;52.014;5.190;2023-06-22T19:30:01;26.10;;;19.00;;
37859;SDS011;23698;52.014;5.190;2023-06-22T19:36:33;14.90;;;12.10;;
37859;SDS011;23698;52.014;5.190;2023-06-22T19:39:22;15.23;;;10.52;;
37859;SDS011;23698;52.014;5.190;2023-06-22T19:42:08;11.80;;;8.55;;
37859;SDS011;23698;52.014;5.190;2023-06-22T19:44:54;10.75;;;7.22;;
37859;SDS011;23698;52.014;5.190;2023-06-22T19:47:43;8.93;;;6.30;;
37859;SDS011;23698;52.014;5.190;2023-06-22T19:50:32;6.80;;;5.22;;
37859;SDS011;23698;52.014;5.190;2023-06-22T19:53:18;7.47;;;5.28;;
37859;SDS011;23698;52.014;5.190;2023-06-22T19:56:06;9.20;;;4.78;;
37859;SDS011;23698;52.014;5.190;2023-06-22T19:58:52;7.85;;;4.78;;
37859;SDS011;23698;52.014;5.190;2023-06-22T22:01:59;5.75;;;4.03;;
37859;SDS011;23698;52.014;5.190;2023-06-22T22:04:47;9.40;;;4.50;;
37859;SDS011;23698;52.014;5.190;2023-06-22T22:07:33;5.63;;;4.13;;
37859;SDS011;23698;52.014;5.190;2023-06-22T22:10:20;7.93;;;4.47;;
37859;SDS011;23698;52.014;5.190;2023-06-22T22:13:06;9.13;;;4.85;;
